Time;durP1;ratioP1;P1;durP2;ratioP2;P2;SDS_P1;SDS_P2;PMS_P1;PMS_P2;Temp;Humidity;BMP_temperature;BMP_pressure;BME280_temperature;BME280_humidity;BME280_pressure;Samples;Min_cycle;Max_cycle;Signal;HPM_P1;HPM_P2
2022/06/20 00:00:37;;;;;;;;;;;;;;;23.93;45.30;95742.19;5095758;28;19962;-72
2022/06/20 00:03:09;;;;;;;;;;;;;;;23.91;45.17;95741.75;5095926;28;19954;-72
2022/06/20 00:05:38;;;;;;;;;;;;;;;23.87;46.12;95749.63;5095563;28;20410;-72
2022/06/20 00:08:05;;;;;;;;;;;;;;;23.84;46.42;95757.53;5095270;28;19967;-72
2022/06/20 00:10:32;;;;;;;;;;;;;;;23.79;46.48;95738.94;5095666;28;19962;-72
2022/06/20 00:12:58;;;;;;;;;;;;;;;23.76;47.06;95744.91;5095476;28;19953;-72
2022/06/20 00:15:29;;;;;;;;;;;;;;;23.68;47.65;95749.19;5094229;28;19973;-72
2022/06/20 00:17:55;;;;;;;;;;;;;;;23.63;48.11;95762.75;5095430;28;19958;-72
2022/06/20 00:20:47;;;;;;;;;;;;;;;23.57;47.89;95750.63;5086932;28;19957;-72
2022/06/20 00:23:13;;;;;;;;;;;;;;;23.56;47.81;95759.75;5095082;28;19957;-72
2022/06/20 00:25:41;;;;;;;;;;;;;;;23.57;47.58;95750.63;5095167;28;19962;-72
2022/06/20 00:28:07;;;;;;;;;;;;;;;23.58;48.00;95763.72;5094906;28;19962;-72
2022/06/20 00:30:34;;;;;;;;;;;;;;;23.59;47.83;95753.78;5095007;28;20324;-72
2022/06/20 00:33:00;;;;;;;;;;;;;;;23.61;47.66;95765.72;5094591;28;19961;-72
2022/06/20 00:35:26;;;;;;;;;;;;;;;23.63;48.20;95792.97;5094686;28;19975;-72
2022/06/20 00:37:55;;;;;;;;;;;;;;;23.61;48.48;95781.78;5094931;28;20486;-72
2022/06/20 00:40:31;;;;;;;;;;;;;;;23.56;50.77;95776.63;5094878;28;20415;-72
2022/06/20 00:42:59;;;;;;;;;;;;;;;23.50;53.67;95759.16;5094488;28;20407;-72
2022/06/20 00:45:44;;;;;;;;;;;;;;;23.40;54.84;95762.94;5095254;28;20261;-72
2022/06/20 00:48:35;;;;;;;;;;;;;;;23.34;53.43;95750.03;5081579;28;19952;-73
2022/06/20 00:51:41;;;;;;;;;;;;;;;23.28;55.22;95760.88;5095038;28;20383;-72
2022/06/20 00:54:41;;;;;;;;;;;;;;;23.22;56.04;95758.69;5089016;28;19971;-73
2022/06/20 00:57:31;;;;;;;;;;;;;;;23.16;56.39;95765.31;5094834;28;19959;-73
2022/06/20 01:00:18;;;;;;;;;;;;;;;23.08;56.62;95761.53;5097949;28;19956;-72
2022/06/20 01:03:16;;;;;;;;;;;;;;;23.02;56.10;95754.78;5094852;28;20403;-73
2022/06/20 01:06:09;;;;;;;;;;;;;;;22.92;57.55;95761.19;5087898;28;19957;-73
2022/06/20 01:08:57;;;;;;;;;;;;;;;22.83;57.23;95771.88;5083770;28;19953;-73
2022/06/20 01:11:47;;;;;;;;;;;;;;;22.78;57.03;95773.91;5094130;28;19953;-73
2022/06/20 01:14:38;;;;;;;;;;;;;;;22.69;58.68;95781.91;5094006;28;20336;-73
2022/06/20 01:17:29;;;;;;;;;;;;;;;22.60;57.99;95773.09;5096099;28;20335;-72
2022/06/20 01:20:14;;;;;;;;;;;;;;;22.49;58.84;95762.69;5087437;28;19949;-73
2022/06/20 01:23:04;;;;;;;;;;;;;;;22.38;57.88;95761.41;5094684;28;19946;-72
2022/06/20 01:25:49;;;;;;;;;;;;;;;22.33;57.68;95761.56;5085618;28;20320;-72
2022/06/20 01:28:35;;;;;;;;;;;;;;;22.33;58.40;95768.78;5085716;28;19956;-72
2022/06/20 01:31:20;;;;;;;;;;;;;;;22.25;59.14;95759.63;5094207;28;19953;-73
2022/06/20 01:34:05;;;;;;;;;;;;;;;22.24;59.44;95761.53;5095875;28;19966;-72
2022/06/20 01:40:00;;;;;;;;;;;;;;;22.22;59.47;95765.59;5094230;28;19959;-73
2022/06/20 01:42:45;;;;;;;;;;;;;;;22.20;59.78;95767.78;5093815;28;19951;-73
2022/06/20 01:48:33;;;;;;;;;;;;;;;22.18;60.77;95773.41;5094033;28;19949;-72
2022/06/20 01:51:20;;;;;;;;;;;;;;;22.16;60.29;95766.81;5093992;28;20393;-72
2022/06/20 01:54:04;;;;;;;;;;;;;;;22.13;61.56;95772.75;5093845;28;20331;-72
2022/06/20 01:56:50;;;;;;;;;;;;;;;22.08;60.68;95763.78;5093936;28;19944;-72
2022/06/20 01:59:39;;;;;;;;;;;;;;;22.06;60.35;95762.53;5093664;28;19955;-72
2022/06/20 02:02:23;;;;;;;;;;;;;;;22.02;60.58;95761.56;5078793;28;19951;-72
2022/06/20 02:05:10;;;;;;;;;;;;;;;21.98;60.79;95760.59;5096364;28;19955;-72
2022/06/20 02:08:00;;;;;;;;;;;;;;;21.95;60.51;95764.69;5093365;28;19955;-72
2022/06/20 02:10:52;;;;;;;;;;;;;;;21.92;61.02;95756.50;5098268;28;19952;-72
2022/06/20 02:13:39;;;;;;;;;;;;;;;21.91;60.78;95760.28;5087499;28;19973;-72
2022/06/20 02:16:26;;;;;;;;;;;;;;;21.88;60.69;95756.31;5093699;28;20408;-72
2022/06/20 02:19:14;;;;;;;;;;;;;;;21.89;61.32;95773.91;5093838;28;20320;-73
2022/06/20 02:22:03;;;;;;;;;;;;;;;21.89;59.96;95780.03;5093444;28;19950;-72
2022/06/20 02:24:49;;;;;;;;;;;;;;;21.86;60.34;95796.69;5099237;28;19952;-73
2022/06/20 02:27:39;;;;;;;;;;;;;;;21.84;60.44;95788.19;5093951;28;19959;-72
2022/06/20 02:30:24;;;;;;;;;;;;;;;21.82;62.53;95797.59;5093372;28;19955;-73
2022/06/20 02:33:11;;;;;;;;;;;;;;;21.81;63.57;95793.34;5093656;28;20297;-73
2022/06/20 02:35:57;;;;;;;;;;;;;;;21.76;62.68;95790.81;5093659;28;20341;-73
2022/06/20 02:38:43;;;;;;;;;;;;;;;21.71;62.27;95809.59;5079485;28;19944;-73
2022/06/20 02:41:28;;;;;;;;;;;;;;;21.61;62.43;95822.09;5097326;28;20393;-73
2022/06/20 02:44:15;;;;;;;;;;;;;;;21.51;61.47;95822.34;5100314;28;19953;-73
2022/06/20 02:47:01;;;;;;;;;;;;;;;21.47;62.18;95818.72;5083208;28;19957;-73
2022/06/20 02:49:46;;;;;;;;;;;;;;;21.46;62.40;95814.44;5097330;28;19955;-73
2022/06/20 02:52:37;;;;;;;;;;;;;;;21.46;62.69;95804.59;5089250;28;20393;-73
2022/06/20 02:55:23;;;;;;;;;;;;;;;21.47;62.92;95789.38;5084380;28;19968;-73
2022/06/20 02:58:17;;;;;;;;;;;;;;;21.47;62.87;95797.38;5096861;28;19946;-73
2022/06/20 03:01:20;;;;;;;;;;;;;;;21.46;63.02;95804.59;5099712;28;19955;-73
2022/06/20 03:04:07;;;;;;;;;;;;;;;21.44;63.05;95803.28;5088609;28;19954;-73
2022/06/20 03:06:55;;;;;;;;;;;;;;;21.42;62.45;95800.16;5101402;28;19948;-73
2022/06/20 03:09:40;;;;;;;;;;;;;;;21.41;62.73;95798.56;5096849;28;20304;-73
2022/06/20 03:12:25;;;;;;;;;;;;;;;21.41;61.73;95798.56;5097548;28;19950;-73
2022/06/20 03:15:09;;;;;;;;;;;;;;;21.41;62.55;95811.88;5095577;28;19982;-72
2022/06/20 03:17:57;;;;;;;;;;;;;;;21.39;63.92;95827.41;5096592;28;19952;-73
2022/06/20 03:20:42;;;;;;;;;;;;;;;21.39;63.93;95841.53;5097475;28;19957;-73
2022/06/20 03:23:28;;;;;;;;;;;;;;;21.39;64.28;95852.19;5096805;28;19954;-73
2022/06/20 03:26:16;;;;;;;;;;;;;;;21.37;65.43;95841.03;5096449;28;19954;-73
2022/06/20 03:29:00;;;;;;;;;;;;;;;21.35;65.22;95837.09;5096434;28;19949;-73
2022/06/20 03:31:45;;;;;;;;;;;;;;;21.31;65.59;95818.22;5096469;28;19961;-73
2022/06/20 03:34:29;;;;;;;;;;;;;;;21.29;65.97;95821.22;5084485;28;19965;-73
2022/06/20 03:37:14;;;;;;;;;;;;;;;21.29;66.15;95847.91;5096365;28;20020;-73
2022/06/20 03:39:58;;;;;;;;;;;;;;;21.28;66.00;95846.31;5096111;28;19960;-74
2022/06/20 03:42:43;;;;;;;;;;;;;;;21.28;66.57;95854.31;5096083;28;19966;-73
2022/06/20 03:45:32;;;;;;;;;;;;;;;21.29;66.33;95868.41;5097793;28;19958;-72
2022/06/20 03:48:19;;;;;;;;;;;;;;;21.28;68.11;95878.31;5091508;28;19957;-72
2022/06/20 03:51:25;;;;;;;;;;;;;;;21.26;68.71;95869.03;5095000;28;19961;-71
2022/06/20 03:54:16;;;;;;;;;;;;;;;21.20;70.02;95865.69;5095972;28;19952;-71
2022/06/20 03:57:06;;;;;;;;;;;;;;;21.12;69.79;95853.06;5096185;28;19960;-72
2022/06/20 03:59:52;;;;;;;;;;;;;;;21.06;71.14;95870.25;5097780;28;19949;-72
2022/06/20 04:02:41;;;;;;;;;;;;;;;20.98;70.98;95882.41;5095988;28;19956;-71
2022/06/20 04:05:31;;;;;;;;;;;;;;;20.87;72.20;95894.34;5091721;28;19959;-71
2022/06/20 04:08:19;;;;;;;;;;;;;;;20.72;73.35;95884.78;5081215;28;19952;-71
2022/06/20 04:11:04;;;;;;;;;;;;;;;20.68;74.59;95894.44;5095729;28;19960;-72
2022/06/20 04:13:51;;;;;;;;;;;;;;;20.67;74.19;95915.00;5081376;28;20326;-72
2022/06/20 04:16:56;;;;;;;;;;;;;;;20.67;73.19;95936.31;5095624;28;19970;-72
2022/06/20 04:19:40;;;;;;;;;;;;;;;20.70;75.45;95952.78;5100154;28;19956;-71
2022/06/20 04:22:28;;;;;;;;;;;;;;;20.70;75.44;95968.78;5095288;28;19961;-72
2022/06/20 04:25:25;;;;;;;;;;;;;;;20.69;75.34;95968.00;5095316;28;19950;-72
2022/06/20 04:28:13;;;;;;;;;;;;;;;20.70;75.37;95950.13;5099938;28;19956;-72
2022/06/20 04:31:17;;;;;;;;;;;;;;;20.68;75.76;95937.91;5095120;28;20401;-72
2022/06/20 04:34:12;;;;;;;;;;;;;;;20.67;75.23;95908.88;5093313;28;19958;-72
2022/06/20 04:36:59;;;;;;;;;;;;;;;20.67;74.85;95892.88;5087071;28;19953;-72
2022/06/20 04:40:02;;;;;;;;;;;;;;;20.67;74.77;95882.22;5083658;28;19942;-71
2022/06/20 04:42:50;;;;;;;;;;;;;;;20.67;74.38;95884.91;5086844;28;19951;-72
2022/06/20 04:45:42;;;;;;;;;;;;;;;20.69;74.56;95896.06;5095025;28;20350;-72
2022/06/20 04:48:27;;;;;;;;;;;;;;;20.70;74.06;95897.63;5094901;28;20396;-72
2022/06/20 04:51:14;;;;;;;;;;;;;;;20.71;75.16;95885.88;5094961;28;19952;-73
2022/06/20 04:53:58;;;;;;;;;;;;;;;20.72;76.09;95900.78;5094909;28;20295;-72
2022/06/20 04:56:44;;;;;;;;;;;;;;;20.72;75.33;95908.75;5094696;28;19955;-72
2022/06/20 04:59:29;;;;;;;;;;;;;;;20.74;75.59;95911.94;5094462;28;19962;-73
2022/06/20 05:02:19;;;;;;;;;;;;;;;20.75;75.14;95902.09;5094682;28;19954;-72
2022/06/20 05:05:04;;;;;;;;;;;;;;;20.77;75.83;95882.03;5084288;28;19955;-72
2022/06/20 05:07:49;;;;;;;;;;;;;;;20.81;75.95;95874.22;5085496;28;19949;-72
2022/06/20 05:10:36;;;;;;;;;;;;;;;20.81;76.41;95880.34;5096979;28;19950;-72
2022/06/20 05:13:28;;;;;;;;;;;;;;;20.79;77.08;95897.72;5094231;28;20294;-72
2022/06/20 05:16:22;;;;;;;;;;;;;;;20.75;76.97;95905.53;5097442;28;19977;-72
2022/06/20 05:19:08;;;;;;;;;;;;;;;20.73;76.61;95896.25;5094533;28;19955;-73
2022/06/20 05:21:55;;;;;;;;;;;;;;;20.74;76.95;95903.16;5100202;28;19954;-72
2022/06/20 05:24:41;;;;;;;;;;;;;;;20.74;77.30;95933.25;5094212;28;20327;-72
2022/06/20 05:27:28;;;;;;;;;;;;;;;20.74;77.33;95940.44;5094384;28;20329;-71
2022/06/20 05:30:18;;;;;;;;;;;;;;;20.75;77.17;95948.16;5099881;28;19953;-72
2022/06/20 05:33:02;;;;;;;;;;;;;;;20.77;77.08;95948.66;5094283;28;19957;-72
2022/06/20 05:35:50;;;;;;;;;;;;;;;20.80;77.91;95955.25;5094104;28;19971;-72
2022/06/20 05:38:15;;;;;;;;;;;;;;;20.84;77.76;95966.91;5093676;28;19965;-72
2022/06/20 05:40:44;;;;;;;;;;;;;;;20.88;79.19;95971.34;5094045;28;19951;-72
2022/06/20 05:43:20;;;;;;;;;;;;;;;20.90;78.49;95973.72;5093947;28;19961;-72
2022/06/20 05:45:48;;;;;;;;;;;;;;;20.92;77.07;95963.56;5094236;28;19962;-72
2022/06/20 05:48:14;;;;;;;;;;;;;;;20.94;77.62;95958.72;5093697;28;19948;-72
2022/06/20 05:50:46;;;;;;;;;;;;;;;20.95;76.95;95952.31;5093476;28;20011;-72
2022/06/20 05:53:14;;;;;;;;;;;;;;;20.96;77.87;95953.91;5093060;28;20012;-73
2022/06/20 05:55:44;;;;;;;;;;;;;;;20.98;78.78;95954.38;5092979;28;19977;-72
2022/06/20 05:58:15;;;;;;;;;;;;;;;21.02;78.38;95958.03;5093552;28;19960;-73
2022/06/20 06:00:41;;;;;;;;;;;;;;;21.07;77.75;95968.59;5085553;28;19958;-72
2022/06/20 06:03:16;;;;;;;;;;;;;;;21.18;76.84;95957.72;5093577;28;19955;-73
2022/06/20 06:05:45;;;;;;;;;;;;;;;21.26;77.86;95952.47;5093915;28;20064;-73
2022/06/20 06:08:25;;;;;;;;;;;;;;;21.31;77.90;95953.47;5093344;28;20428;-72
2022/06/20 06:10:51;;;;;;;;;;;;;;;21.34;77.71;95950.22;5093812;28;20404;-72
2022/06/20 06:13:41;;;;;;;;;;;;;;;21.36;77.27;95953.38;5094213;28;19958;-73
2022/06/20 06:19:15;;;;;;;;;;;;;;;21.46;77.57;95945.97;5090950;28;19962;-72
2022/06/20 06:21:42;;;;;;;;;;;;;;;21.68;77.65;95947.09;5077828;28;19952;-74
2022/06/20 06:24:11;;;;;;;;;;;;;;;21.90;77.27;95949.00;5097244;28;19960;-72
2022/06/20 06:26:38;;;;;;;;;;;;;;;22.00;76.27;95967.44;5097459;28;20405;-73
2022/06/20 06:29:05;;;;;;;;;;;;;;;22.02;74.59;95970.59;5098092;28;19977;-72
2022/06/20 06:31:35;;;;;;;;;;;;;;;22.03;74.79;95971.41;5097158;28;19966;-72
2022/06/20 06:34:09;;;;;;;;;;;;;;;22.00;75.12;95970.13;5097219;28;19965;-73
2022/06/20 06:36:39;;;;;;;;;;;;;;;21.97;74.35;95960.06;5097127;28;19982;-73
2022/06/20 06:39:18;;;;;;;;;;;;;;;21.96;75.44;95963.81;5097256;28;19978;-72
2022/06/20 06:41:46;;;;;;;;;;;;;;;21.99;74.65;95959.75;5084803;28;19949;-72
2022/06/20 06:44:21;;;;;;;;;;;;;;;22.36;73.68;95963.16;5097255;28;19961;-73
2022/06/20 06:46:48;;;;;;;;;;;;;;;22.68;71.71;95962.09;5097173;28;19962;-72
2022/06/20 06:49:20;;;;;;;;;;;;;;;22.88;70.43;95966.09;5096879;28;19961;-72
2022/06/20 06:51:54;;;;;;;;;;;;;;;22.84;69.09;95954.44;5097153;28;20323;-74
2022/06/20 06:54:26;;;;;;;;;;;;;;;22.72;69.56;95970.28;5097231;28;19966;-72
2022/06/20 06:56:56;;;;;;;;;;;;;;;22.81;70.81;95977.25;5096672;28;20389;-73
2022/06/20 06:59:27;;;;;;;;;;;;;;;23.00;70.43;95978.91;5096810;28;20411;-74
2022/06/20 07:01:55;;;;;;;;;;;;;;;23.36;69.52;95976.03;5095520;28;19954;-74
2022/06/20 07:04:20;;;;;;;;;;;;;;;23.75;70.38;95973.56;5096787;28;19962;-73
2022/06/20 07:06:50;;;;;;;;;;;;;;;24.14;69.33;95969.19;5096614;28;20317;-73
2022/06/20 07:09:21;;;;;;;;;;;;;;;24.43;64.62;95936.38;5096642;28;20406;-73
2022/06/20 07:11:51;;;;;;;;;;;;;;;24.64;65.35;95931.91;5096685;28;20409;-73
2022/06/20 07:14:21;;;;;;;;;;;;;;;24.86;64.20;95928.22;5096236;28;19992;-72
2022/06/20 07:16:53;;;;;;;;;;;;;;;25.02;64.00;95933.81;5095852;28;19974;-72
2022/06/20 07:19:20;;;;;;;;;;;;;;;25.19;61.30;95916.81;5096341;28;19954;-72
2022/06/20 07:21:46;;;;;;;;;;;;;;;25.34;61.06;95918.19;5096012;28;19957;-72
2022/06/20 07:24:18;;;;;;;;;;;;;;;25.38;59.44;95907.59;5096044;28;19970;-72
2022/06/20 07:27:13;;;;;;;;;;;;;;;25.30;60.78;95930.69;5096325;28;19955;-72
2022/06/20 07:29:47;;;;;;;;;;;;;;;25.38;61.91;95943.25;5056246;28;19965;-73
2022/06/20 07:32:16;;;;;;;;;;;;;;;25.59;64.09;95962.06;5096123;28;19956;-72
2022/06/20 07:34:44;;;;;;;;;;;;;;;25.78;61.83;95945.50;5096029;28;19967;-72
2022/06/20 07:37:16;;;;;;;;;;;;;;;25.94;60.92;95940.38;5095695;28;20330;-72
2022/06/20 07:39:46;;;;;;;;;;;;;;;26.05;57.91;95914.66;5095785;28;19963;-72
2022/06/20 07:42:28;;;;;;;;;;;;;;;26.14;56.09;95903.81;5095914;28;19979;-72
2022/06/20 07:44:57;;;;;;;;;;;;;;;26.22;51.77;95864.53;5095822;28;19965;-72
2022/06/20 07:47:26;;;;;;;;;;;;;;;26.28;51.65;95863.97;5084484;28;19959;-72
2022/06/20 07:49:54;;;;;;;;;;;;;;;26.36;51.70;95867.69;5095721;28;19964;-72
2022/06/20 07:52:30;;;;;;;;;;;;;;;26.47;50.33;95874.19;5095876;28;19962;-72
2022/06/20 07:54:59;;;;;;;;;;;;;;;26.58;51.12;95874.56;5095583;28;19957;-72
2022/06/20 07:57:30;;;;;;;;;;;;;;;26.64;49.81;95873.22;5095762;28;20303;-72
2022/06/20 07:59:59;;;;;;;;;;;;;;;26.71;49.93;95886.94;5095837;28;20460;-72
2022/06/20 08:02:32;;;;;;;;;;;;;;;26.79;49.11;95911.34;5095480;28;19956;-72
2022/06/20 08:04:59;;;;;;;;;;;;;;;26.84;46.82;95884.25;5095875;28;19957;-72
2022/06/20 08:07:36;;;;;;;;;;;;;;;26.92;44.92;95872.56;5095465;28;19956;-71
2022/06/20 08:10:12;;;;;;;;;;;;;;;26.91;48.55;95909.44;5081977;28;19955;-72
2022/06/20 08:12:43;;;;;;;;;;;;;;;26.96;46.74;95907.66;5095292;28;19961;-73
2022/06/20 08:15:14;;;;;;;;;;;;;;;26.93;44.76;95903.75;5095582;28;20009;-72
2022/06/20 08:17:39;;;;;;;;;;;;;;;27.05;45.95;95919.09;5095239;28;19971;-72
2022/06/20 08:20:06;;;;;;;;;;;;;;;27.11;46.71;95929.31;5095176;28;20004;-72
2022/06/20 08:22:39;;;;;;;;;;;;;;;27.18;45.52;95931.44;5095025;28;19970;-72
2022/06/20 08:25:38;;;;;;;;;;;;;;;27.14;43.67;95931.31;5073193;28;19957;-72
2022/06/20 08:28:16;;;;;;;;;;;;;;;27.10;44.48;95941.19;5072572;28;19952;-72
2022/06/20 08:30:46;;;;;;;;;;;;;;;27.14;45.05;95960.13;5072704;28;20455;-72
2022/06/20 08:33:23;;;;;;;;;;;;;;;27.19;44.05;95957.22;5072458;28;20463;-72
2022/06/20 08:35:55;;;;;;;;;;;;;;;27.20;45.08;95971.47;5071789;28;20336;-72
2022/06/20 08:38:32;;;;;;;;;;;;;;;27.23;44.74;95971.59;5071741;28;19964;-72
2022/06/20 08:41:04;;;;;;;;;;;;;;;27.32;43.84;95977.66;5072448;28;19957;-72
2022/06/20 08:43:38;;;;;;;;;;;;;;;27.36;44.35;95980.44;5071643;28;19966;-72
2022/06/20 08:46:13;;;;;;;;;;;;;;;27.46;45.31;95981.91;5072811;28;20345;-72
2022/06/20 08:48:57;;;;;;;;;;;;;;;27.47;44.56;95988.88;5055610;28;20420;-72
2022/06/20 08:51:23;;;;;;;;;;;;;;;27.53;43.14;95980.22;5059090;28;19960;-72
2022/06/20 08:53:58;;;;;;;;;;;;;;;27.59;44.86;95999.63;5072507;28;20340;-72
2022/06/20 08:56:42;;;;;;;;;;;;;;;27.68;43.82;95988.75;5071399;28;19975;-72
2022/06/20 08:59:08;;;;;;;;;;;;;;;27.72;43.79;95995.78;5072404;28;19950;-72
2022/06/20 09:01:50;;;;;;;;;;;;;;;27.73;43.76;95981.19;5072191;28;19943;-72
2022/06/20 09:04:34;;;;;;;;;;;;;;;27.80;43.47;95985.22;5072129;28;19963;-72
2022/06/20 09:07:03;;;;;;;;;;;;;;;27.94;43.50;95972.19;5071736;28;19971;-72
2022/06/20 09:09:48;;;;;;;;;;;;;;;28.06;43.99;95976.75;5083739;28;19964;-72
2022/06/20 09:12:32;;;;;;;;;;;;;;;28.21;43.60;95983.34;5094360;28;19958;-72
2022/06/20 09:15:08;;;;;;;;;;;;;;;28.32;43.39;95985.19;5094435;28;19982;-72
2022/06/20 09:17:54;;;;;;;;;;;;;;;28.49;43.17;95989.50;5094246;28;19959;-71
2022/06/20 09:20:57;;;;;;;;;;;;;;;28.49;42.76;95992.22;5065433;28;20461;-71
2022/06/20 09:23:23;;;;;;;;;;;;;;;28.59;42.96;95993.63;5094319;28;20448;-71
2022/06/20 09:25:56;;;;;;;;;;;;;;;28.73;41.28;95968.94;5075491;28;19953;-72
2022/06/20 09:28:25;;;;;;;;;;;;;;;28.86;41.68;95981.22;5094226;28;19958;-71
2022/06/20 09:30:58;;;;;;;;;;;;;;;28.94;40.55;95974.09;5094154;28;20438;-71
2022/06/20 09:33:30;;;;;;;;;;;;;;;28.99;41.63;95976.50;5094081;28;19956;-71
2022/06/20 09:36:09;;;;;;;;;;;;;;;29.09;41.22;95986.78;5093785;28;19979;-71
2022/06/20 09:38:53;;;;;;;;;;;;;;;28.98;40.78;95983.06;5094022;28;19951;-71
2022/06/20 09:41:31;;;;;;;;;;;;;;;29.03;41.57;95987.41;5080020;28;20327;-72
2022/06/20 09:44:21;;;;;;;;;;;;;;;28.97;41.12;95986.88;5093738;28;19956;-72
2022/06/20 09:47:13;;;;;;;;;;;;;;;28.78;41.05;95992.97;5093685;28;19958;-71
2022/06/20 09:49:48;;;;;;;;;;;;;;;28.67;39.98;95983.81;5093431;28;19957;-71
2022/06/20 09:52:51;;;;;;;;;;;;;;;28.50;39.64;95990.31;5083734;28;19953;-72
2022/06/20 09:55:23;;;;;;;;;;;;;;;28.39;38.71;95986.50;5087175;28;19953;-72
2022/06/20 09:58:15;;;;;;;;;;;;;;;28.28;40.88;96005.88;5093763;28;19954;-71
2022/06/20 10:00:48;;;;;;;;;;;;;;;28.15;39.78;95996.28;5093680;28;19952;-71
2022/06/20 10:03:23;;;;;;;;;;;;;;;28.00;39.84;95992.38;5093619;28;19958;-72
2022/06/20 10:05:56;;;;;;;;;;;;;;;27.97;41.28;96001.16;5093759;28;19953;-71
2022/06/20 10:08:31;;;;;;;;;;;;;;;27.98;41.20;96001.94;5093632;28;20391;-72
2022/06/20 10:10:57;;;;;;;;;;;;;;;27.99;41.33;95988.13;5093747;28;19948;-72
2022/06/20 10:13:42;;;;;;;;;;;;;;;28.09;40.76;95978.75;5093583;28;20004;-72
2022/06/20 10:16:15;;;;;;;;;;;;;;;28.11;40.87;95990.00;5079456;28;20360;-72
2022/06/20 10:18:55;;;;;;;;;;;;;;;27.92;39.58;95969.81;5093546;28;19963;-72
2022/06/20 10:21:50;;;;;;;;;;;;;;;27.81;40.26;95989.50;5093530;28;19956;-72
2022/06/20 10:24:35;;;;;;;;;;;;;;;27.72;40.87;95992.31;5083432;28;19957;-72
2022/06/20 10:27:01;;;;;;;;;;;;;;;27.68;40.76;95986.03;5080368;28;20423;-71
2022/06/20 10:29:36;;;;;;;;;;;;;;;27.66;39.90;95988.28;5093589;28;19994;-71
2022/06/20 10:32:19;;;;;;;;;;;;;;;27.64;39.92;96001.31;5093211;28;19955;-71
2022/06/20 10:34:54;;;;;;;;;;;;;;;27.60;40.13;96001.19;5093606;28;20415;-71
2022/06/20 10:37:20;;;;;;;;;;;;;;;27.47;40.01;95999.66;5093406;28;19977;-71
2022/06/20 10:40:10;;;;;;;;;;;;;;;27.41;39.78;96001.00;5093293;28;20037;-71
2022/06/20 10:42:43;;;;;;;;;;;;;;;27.31;38.98;95986.84;5093798;28;19962;-71
2022/06/20 10:45:18;;;;;;;;;;;;;;;27.24;39.72;96000.09;5093044;28;19959;-71
2022/06/20 10:47:56;;;;;;;;;;;;;;;27.26;41.52;96014.00;5093290;28;19959;-71
2022/06/20 10:50:24;;;;;;;;;;;;;;;27.51;40.59;96006.72;5092579;28;19953;-70
2022/06/20 10:52:59;;;;;;;;;;;;;;;27.85;40.52;96001.16;5092932;28;19960;-71
2022/06/20 10:55:31;;;;;;;;;;;;;;;28.23;40.38;96000.72;5092856;28;20360;-71
2022/06/20 10:58:05;;;;;;;;;;;;;;;28.49;38.11;95988.72;5092875;28;19960;-71
2022/06/20 11:00:47;;;;;;;;;;;;;;;28.57;38.82;95997.81;5095949;28;20323;-71
2022/06/20 11:03:25;;;;;;;;;;;;;;;28.71;37.92;95982.78;5096854;28;19959;-71
2022/06/20 11:05:57;;;;;;;;;;;;;;;28.84;38.22;95996.19;5096851;28;19945;-71
2022/06/20 11:08:38;;;;;;;;;;;;;;;28.62;36.54;95992.16;5096689;28;19964;-68
2022/06/20 11:11:22;;;;;;;;;;;;;;;28.39;38.25;96002.69;5096648;28;20392;-68
2022/06/20 11:13:59;;;;;;;;;;;;;;;28.26;38.14;96020.81;5085793;28;20338;-68
2022/06/20 11:16:37;;;;;;;;;;;;;;;28.05;37.75;96021.78;5096370;28;19980;-69
2022/06/20 11:19:12;;;;;;;;;;;;;;;27.93;39.37;96035.31;5087292;28;19949;-68
2022/06/20 11:21:48;;;;;;;;;;;;;;;27.91;39.52;96037.56;5095410;28;19962;-68
2022/06/20 11:24:17;;;;;;;;;;;;;;;28.07;39.53;96030.31;5096465;28;19959;-68
2022/06/20 11:27:14;;;;;;;;;;;;;;;28.46;39.10;96019.06;5096470;28;19952;-68
2022/06/20 11:29:40;;;;;;;;;;;;;;;28.83;38.98;96021.59;5059364;28;20066;-69
2022/06/20 11:32:15;;;;;;;;;;;;;;;28.98;38.21;96009.25;5096247;28;19963;-69
2022/06/20 11:34:50;;;;;;;;;;;;;;;28.94;37.65;96022.66;5086527;28;19960;-69
2022/06/20 11:37:16;;;;;;;;;;;;;;;28.76;38.56;96029.53;5096298;28;19971;-69
2022/06/20 11:39:54;;;;;;;;;;;;;;;28.56;38.08;96028.59;5096441;28;19988;-68
2022/06/20 11:42:39;;;;;;;;;;;;;;;28.36;38.99;96036.53;5096004;28;19956;-69
2022/06/20 11:45:18;;;;;;;;;;;;;;;28.28;39.22;96043.63;5095690;28;19971;-69
2022/06/20 11:47:47;;;;;;;;;;;;;;;28.48;39.54;96044.56;5095848;28;19963;-69
2022/06/20 11:50:13;;;;;;;;;;;;;;;28.50;38.15;96036.94;5095993;28;19953;-69
2022/06/20 11:52:51;;;;;;;;;;;;;;;28.33;39.19;96038.00;5095787;28;20283;-68
2022/06/20 11:55:18;;;;;;;;;;;;;;;28.20;39.08;96046.47;5095609;28;19973;-69
2022/06/20 11:57:49;;;;;;;;;;;;;;;28.13;39.99;96055.91;5095872;28;19975;-68
2022/06/20 12:00:20;;;;;;;;;;;;;;;28.23;39.25;96043.09;5095976;28;19946;-69
2022/06/20 12:02:46;;;;;;;;;;;;;;;28.27;40.05;96052.84;5095678;28;19951;-68
2022/06/20 12:05:14;;;;;;;;;;;;;;;28.45;40.21;96047.94;5095567;28;19951;-69
2022/06/20 12:07:49;;;;;;;;;;;;;;;28.54;39.51;96054.00;5095577;28;19953;-69
2022/06/20 12:10:31;;;;;;;;;;;;;;;28.31;38.98;96059.13;5095082;28;20421;-69
2022/06/20 12:13:23;;;;;;;;;;;;;;;28.10;39.73;96064.69;5094289;28;19952;-69
2022/06/20 12:15:49;;;;;;;;;;;;;;;27.97;41.54;96084.72;5094163;28;19960;-70
2022/06/20 12:18:33;;;;;;;;;;;;;;;27.92;40.38;96069.53;5095196;28;20360;-71
2022/06/20 12:23:54;;;;;;;;;;;;;;;28.34;40.45;96087.31;5088267;28;19960;-71
2022/06/20 12:26:31;;;;;;;;;;;;;;;28.50;39.06;96069.31;5086249;28;19953;-72
2022/06/20 12:28:58;;;;;;;;;;;;;;;28.57;39.70;96073.34;5095218;28;19959;-71
2022/06/20 12:31:33;;;;;;;;;;;;;;;28.60;39.18;96075.34;5094761;28;19956;-72
2022/06/20 12:34:07;;;;;;;;;;;;;;;28.58;39.67;96086.50;5095085;28;19948;-72
2022/06/20 12:36:42;;;;;;;;;;;;;;;28.56;39.02;96074.47;5094868;28;19968;-72
2022/06/20 12:39:20;;;;;;;;;;;;;;;28.62;39.16;96083.88;5094903;28;19952;-72
2022/06/20 12:41:49;;;;;;;;;;;;;;;28.78;38.60;96078.53;5094848;28;19963;-71
2022/06/20 12:44:25;;;;;;;;;;;;;;;28.52;38.38;96093.25;5094690;28;19964;-71
2022/06/20 12:47:19;;;;;;;;;;;;;;;28.21;39.11;96089.25;5092979;28;19956;-72
2022/06/20 12:50:18;;;;;;;;;;;;;;;27.89;39.86;96104.50;5086427;28;19957;-72
2022/06/20 12:52:46;;;;;;;;;;;;;;;27.42;40.52;96107.59;5071540;28;19985;-71
2022/06/20 12:55:15;;;;;;;;;;;;;;;27.22;41.02;96125.38;5094627;28;19974;-71
2022/06/20 12:58:00;;;;;;;;;;;;;;;26.99;41.67;96112.28;5094467;28;19994;-71
2022/06/20 13:00:32;;;;;;;;;;;;;;;26.89;42.39;96121.56;5094399;28;19950;-71
2022/06/20 13:03:07;;;;;;;;;;;;;;;26.90;41.37;96107.00;5094337;28;19953;-72
2022/06/20 13:05:43;;;;;;;;;;;;;;;26.93;41.14;96108.25;5094657;28;19966;-71
2022/06/20 13:08:09;;;;;;;;;;;;;;;26.77;41.46;96108.06;5094298;28;19962;-72
2022/06/20 13:10:35;;;;;;;;;;;;;;;26.64;42.58;96112.59;5094182;28;20045;-71
2022/06/20 13:13:13;;;;;;;;;;;;;;;26.42;42.88;96131.75;5094588;28;20317;-71
2022/06/20 13:15:48;;;;;;;;;;;;;;;26.33;43.08;96134.50;5079447;28;19959;-71
2022/06/20 13:18:17;;;;;;;;;;;;;;;26.30;43.29;96129.78;5094445;28;20462;-71
2022/06/20 13:20:54;;;;;;;;;;;;;;;26.22;42.87;96131.41;5093564;28;19974;-71
2022/06/20 13:23:34;;;;;;;;;;;;;;;26.09;43.27;96132.44;5093748;28;19964;-71
2022/06/20 13:26:09;;;;;;;;;;;;;;;25.90;42.60;96130.97;5093924;28;19970;-71
2022/06/20 13:28:44;;;;;;;;;;;;;;;25.82;43.59;96131.75;5093942;28;19961;-71
2022/06/20 13:31:15;;;;;;;;;;;;;;;25.77;43.65;96125.81;5093832;28;19960;-71
2022/06/20 13:33:50;;;;;;;;;;;;;;;25.70;43.66;96156.63;5093935;28;19954;-71
2022/06/20 13:36:32;;;;;;;;;;;;;;;25.62;44.73;96160.16;5093617;28;19978;-71
2022/06/20 13:38:59;;;;;;;;;;;;;;;25.45;47.10;96176.28;5093828;28;20438;-71
2022/06/20 13:41:27;;;;;;;;;;;;;;;25.34;46.82;96191.19;5093684;28;19956;-71
2022/06/20 13:44:12;;;;;;;;;;;;;;;25.14;46.82;96201.44;5093938;28;19958;-71
2022/06/20 13:46:56;;;;;;;;;;;;;;;24.80;48.52;96212.97;5093857;28;19948;-71
2022/06/20 13:49:27;;;;;;;;;;;;;;;24.53;52.57;96212.16;5093401;28;19956;-72
2022/06/20 13:51:59;;;;;;;;;;;;;;;24.47;54.17;96227.56;5093887;28;19952;-72
2022/06/20 13:54:43;;;;;;;;;;;;;;;24.43;54.00;96210.53;5093486;28;19957;-71
2022/06/20 13:57:19;;;;;;;;;;;;;;;24.29;54.29;96191.91;5093539;28;19972;-71
2022/06/20 13:59:45;;;;;;;;;;;;;;;24.15;59.29;96219.91;5093449;28;19956;-71